Time;durP1;ratioP1;P1;durP2;ratioP2;P2;SDS_P1;SDS_P2;PMS_P1;PMS_P2;Temp;Humidity;BMP_temperature;BMP_pressure;BME280_temperature;BME280_humidity;BME280_pressure;Samples;Min_cycle;Max_cycle;Signal;HPM_P1;HPM_P2
2021/05/31 00:00:06;;;;;;;6.33;5.83;;;;;;;13.95;71.32;101351.06;4955116;28;20299;-70
2021/05/31 00:02:33;;;;;;;7.20;6.60;;;;;;;13.91;71.61;101350.25;4955383;28;20224;-70
2021/05/31 00:04:59;;;;;;;7.67;6.43;;;;;;;13.80;72.32;101355.69;4954768;28;20562;-70
2021/05/31 00:07:24;;;;;;;6.57;6.03;;;;;;;13.71;72.29;101355.84;4949494;28;20280;-71
2021/05/31 00:09:55;;;;;;;6.53;6.10;;;;;;;13.68;71.78;101351.53;4957358;28;20218;-70
2021/05/31 00:12:22;;;;;;;6.33;5.83;;;;;;;13.67;72.10;101355.03;4956351;28;20216;-70
2021/05/31 00:14:48;;;;;;;6.83;6.23;;;;;;;13.61;72.89;101354.28;4950401;28;20220;-71
2021/05/31 00:17:15;;;;;;;6.50;6.03;;;;;;;13.65;72.34;101350.72;4957243;28;20212;-71
2021/05/31 00:19:42;;;;;;;7.30;6.70;;;;;;;13.56;72.82;101346.50;4949714;28;20205;-70
2021/05/31 00:22:08;;;;;;;8.00;6.97;;;;;;;13.54;72.71;101348.28;4954578;28;20247;-71
2021/05/31 00:24:35;;;;;;;7.80;7.03;;;;;;;13.43;73.39;101348.44;4955020;28;20231;-70
2021/05/31 00:27:01;;;;;;;7.33;6.83;;;;;;;13.47;72.81;101344.00;4949281;28;20228;-70
2021/05/31 00:29:28;;;;;;;8.03;6.30;;;;;;;13.45;72.48;101338.78;4949914;28;20215;-71
2021/05/31 00:31:56;;;;;;;7.83;7.03;;;;;;;13.44;73.40;101337.06;4951627;28;20251;-70
2021/05/31 00:34:23;;;;;;;7.23;6.63;;;;;;;13.38;72.44;101337.16;4952651;28;20229;-69
2021/05/31 00:36:49;;;;;;;7.77;7.20;;;;;;;13.33;72.83;101339.00;4949728;28;20687;-70
2021/05/31 00:39:15;;;;;;;6.93;6.37;;;;;;;13.32;72.93;101339.91;4957254;28;21268;-70
2021/05/31 00:41:45;;;;;;;7.50;6.90;;;;;;;13.22;72.86;101340.88;4952527;28;20695;-69
2021/05/31 00:44:11;;;;;;;6.83;6.33;;;;;;;13.20;73.31;101340.03;4954421;28;20686;-70
2021/05/31 00:46:38;;;;;;;6.57;6.07;;;;;;;13.12;74.17;101334.91;4953856;28;20235;-71
2021/05/31 00:49:04;;;;;;;7.10;6.50;;;;;;;13.00;74.16;101335.09;4952552;28;20224;-70
2021/05/31 00:51:30;;;;;;;7.53;6.83;;;;;;;12.95;74.16;101342.16;4952750;28;20208;-70
2021/05/31 00:53:56;;;;;;;7.67;6.80;;;;;;;13.00;73.65;101343.84;4947639;28;20611;-70
2021/05/31 00:56:22;;;;;;;6.93;6.33;;;;;;;12.94;73.84;101343.91;4960016;28;20209;-70
2021/05/31 00:58:48;;;;;;;7.10;6.60;;;;;;;12.99;73.80;101341.22;4957246;28;20216;-69
2021/05/31 01:01:15;;;;;;;6.80;6.30;;;;;;;12.93;73.66;101342.19;4961003;28;20718;-70
2021/05/31 01:03:42;;;;;;;6.80;6.30;;;;;;;12.91;73.87;101341.34;4950571;28;20231;-71
2021/05/31 01:06:08;;;;;;;7.00;6.30;;;;;;;12.78;75.04;101339.75;4954345;28;20209;-70
2021/05/31 01:08:42;;;;;;;7.57;6.87;;;;;;;12.77;74.70;101341.53;4954489;28;20224;-71
2021/05/31 01:11:11;;;;;;;6.83;6.23;;;;;;;12.68;74.61;101341.63;4957576;28;20551;-69
2021/05/31 01:13:44;;;;;;;8.30;7.20;;;;;;;12.66;74.63;101335.56;4956549;28;20446;-69
2021/05/31 01:16:13;;;;;;;7.27;6.57;;;;;;;12.60;74.85;101330.41;4951751;28;20212;-70
2021/05/31 01:18:41;;;;;;;6.60;6.17;;;;;;;12.54;74.31;101339.19;4952967;28;20295;-70
2021/05/31 01:21:19;;;;;;;6.60;6.03;;;;;;;12.49;74.57;101331.41;4958046;28;20295;-70
2021/05/31 01:23:51;;;;;;;7.23;6.57;;;;;;;12.42;75.09;101332.34;4958840;28;20224;-69
2021/05/31 01:26:19;;;;;;;7.17;6.60;;;;;;;12.44;75.03;101337.59;4955366;28;20571;-70
2021/05/31 01:29:01;;;;;;;7.47;6.80;;;;;;;12.38;75.18;101332.44;4961290;28;20270;-70
2021/05/31 01:31:37;;;;;;;6.57;6.07;;;;;;;12.40;74.82;101331.50;4956744;28;20212;-70
2021/05/31 01:34:07;;;;;;;6.63;6.13;;;;;;;12.28;75.75;101331.66;4958668;28;20568;-70
2021/05/31 01:36:37;;;;;;;7.20;6.60;;;;;;;12.19;75.69;101331.75;4954748;28;20702;-70
2021/05/31 01:39:04;;;;;;;7.63;7.07;;;;;;;12.14;75.88;101326.59;4955504;28;20432;-69
2021/05/31 01:41:31;;;;;;;7.03;6.43;;;;;;;12.05;75.85;101335.41;4955108;28;20217;-70
2021/05/31 01:43:57;;;;;;;7.40;6.80;;;;;;;12.06;76.22;101337.13;4955420;28;20259;-70
2021/05/31 01:46:25;;;;;;;6.57;6.07;;;;;;;12.10;76.01;101328.34;4951374;28;20727;-70
2021/05/31 01:48:52;;;;;;;7.53;6.93;;;;;;;12.19;75.69;101329.13;4950456;28;20264;-70
2021/05/31 01:51:19;;;;;;;7.53;6.83;;;;;;;12.22;75.79;101335.22;4955341;28;20954;-70
2021/05/31 01:53:46;;;;;;;7.00;6.50;;;;;;;12.24;75.53;101328.22;4947480;28;20256;-71
2021/05/31 01:56:14;;;;;;;7.53;6.83;;;;;;;12.23;75.49;101326.50;4962072;28;20218;-71
2021/05/31 01:58:40;;;;;;;7.97;7.33;;;;;;;12.20;75.43;101323.91;4948925;28;20216;-69
2021/05/31 02:01:08;;;;;;;7.97;7.27;;;;;;;12.20;75.84;101333.50;4960653;28;20239;-70
2021/05/31 02:03:35;;;;;;;7.57;6.97;;;;;;;12.20;75.75;101329.13;4948608;28;20361;-71
2021/05/31 02:06:01;;;;;;;8.00;7.40;;;;;;;12.22;75.58;101326.50;4955739;28;20210;-71
2021/05/31 02:08:27;;;;;;;7.60;7.00;;;;;;;12.16;75.43;101327.44;4956645;28;20224;-70
2021/05/31 02:10:54;;;;;;;7.63;7.00;;;;;;;12.04;76.45;101327.56;4952940;28;20571;-70
2021/05/31 02:13:23;;;;;;;7.60;7.10;;;;;;;12.03;75.77;101326.72;4953083;28;20669;-70
2021/05/31 02:15:58;;;;;;;7.80;7.00;;;;;;;11.90;76.46;101325.97;4953453;28;20208;-69
2021/05/31 02:18:25;;;;;;;7.90;7.20;;;;;;;11.73;77.01;101327.84;4952850;28;20258;-71
2021/05/31 02:20:57;;;;;;;7.80;7.20;;;;;;;11.73;77.30;101327.84;4951381;28;20219;-70
2021/05/31 02:23:23;;;;;;;8.70;7.90;;;;;;;11.64;77.12;101317.47;4951747;28;20293;-71
2021/05/31 02:25:50;;;;;;;7.80;7.20;;;;;;;11.71;77.09;101319.13;4955021;28;20747;-70
2021/05/31 02:28:16;;;;;;;7.80;7.20;;;;;;;11.68;76.82;101322.66;4963430;28;20263;-70
2021/05/31 02:30:42;;;;;;;7.97;7.23;;;;;;;11.77;76.74;101320.84;4953162;28;20212;-71
2021/05/31 02:33:08;;;;;;;8.40;7.60;;;;;;;11.77;76.34;101312.97;4958936;28;20243;-69
2021/05/31 02:35:37;;;;;;;8.07;7.37;;;;;;;11.72;76.75;101320.88;4956501;28;20211;-70
2021/05/31 02:38:05;;;;;;;8.00;7.20;;;;;;;11.68;76.82;101327.03;4956712;28;20207;-70
2021/05/31 02:40:32;;;;;;;8.33;6.83;;;;;;;11.67;76.84;101331.41;4959114;28;20213;-70
2021/05/31 02:43:01;;;;;;;7.63;6.93;;;;;;;11.64;76.85;101325.31;4957619;28;20227;-71
2021/05/31 02:45:28;;;;;;;7.00;6.40;;;;;;;11.67;76.57;101325.28;4958889;28;20221;-70
2021/05/31 02:47:56;;;;;;;7.33;6.77;;;;;;;11.65;76.96;101329.66;4953093;28;20746;-70
2021/05/31 02:50:22;;;;;;;7.77;6.70;;;;;;;11.69;76.30;101331.34;4951196;28;20707;-70
2021/05/31 02:52:49;;;;;;;6.73;6.33;;;;;;;11.70;75.96;101330.50;4954391;28;20738;-70
2021/05/31 02:55:19;;;;;;;7.60;6.90;;;;;;;11.71;76.17;101333.09;4956417;28;20220;-70
2021/05/31 02:57:45;;;;;;;7.67;7.07;;;;;;;11.69;76.40;101326.13;4960062;28;20772;-69
2021/05/31 03:00:14;;;;;;;7.23;6.60;;;;;;;11.67;76.61;101323.56;4961644;28;20242;-70
2021/05/31 03:02:40;;;;;;;7.30;6.80;;;;;;;11.60;76.38;101324.47;4954522;28;20784;-70
2021/05/31 03:05:08;;;;;;;7.63;6.93;;;;;;;11.58;76.76;101328.84;4958599;28;20223;-70
2021/05/31 03:07:34;;;;;;;8.10;7.47;;;;;;;11.56;76.88;101332.38;4949217;28;20301;-69
2021/05/31 03:10:00;;;;;;;7.43;6.73;;;;;;;11.53;76.92;101328.91;4956465;28;20206;-71
2021/05/31 03:12:27;;;;;;;8.23;7.57;;;;;;;11.50;77.00;101328.91;4954406;28;20219;-70
2021/05/31 03:14:53;;;;;;;7.73;7.07;;;;;;;11.44;77.00;101330.72;4947126;28;20588;-71
2021/05/31 03:17:19;;;;;;;7.90;7.27;;;;;;;11.43;76.82;101334.22;4947743;28;20210;-71
2021/05/31 03:19:45;;;;;;;9.07;8.30;;;;;;;11.38;77.12;101330.75;4958664;28;20601;-68
2021/05/31 03:22:11;;;;;;;7.93;7.23;;;;;;;11.31;76.75;101322.97;4950739;28;20263;-70
2021/05/31 03:24:37;;;;;;;7.80;7.20;;;;;;;11.30;76.98;101334.31;4951414;28;20213;-71
2021/05/31 03:27:03;;;;;;;7.90;7.33;;;;;;;11.24;77.03;101330.88;4950047;28;20536;-70
2021/05/31 03:29:30;;;;;;;7.73;7.13;;;;;;;11.24;77.20;101330.88;4949502;28;20208;-71
2021/05/31 03:31:57;;;;;;;8.10;7.40;;;;;;;11.21;77.64;101336.13;4952877;28;20214;-70
2021/05/31 03:34:23;;;;;;;8.10;7.27;;;;;;;11.25;77.23;101345.66;4955273;28;20266;-70
2021/05/31 03:36:48;;;;;;;7.93;7.27;;;;;;;11.20;77.09;101340.50;4953752;28;20203;-70
2021/05/31 03:39:14;;;;;;;8.03;7.33;;;;;;;11.19;77.17;101340.50;4954622;28;20444;-70
2021/05/31 03:41:40;;;;;;;7.30;6.80;;;;;;;11.18;77.07;101344.84;4948693;28;20207;-70
2021/05/31 03:44:07;;;;;;;6.87;6.27;;;;;;;11.20;77.13;101343.09;4947446;28;20478;-71
2021/05/31 03:46:34;;;;;;;7.60;7.00;;;;;;;11.23;76.73;101344.81;4958781;28;20245;-70
2021/05/31 03:49:00;;;;;;;7.50;6.77;;;;;;;11.29;76.42;101350.00;4949014;28;21014;-71
2021/05/31 03:51:26;;;;;;;6.90;6.40;;;;;;;11.28;76.21;101345.66;4952577;28;20294;-71
2021/05/31 03:53:51;;;;;;;6.60;6.10;;;;;;;11.31;75.69;101346.47;4949298;28;20280;-70
2021/05/31 03:56:17;;;;;;;7.00;6.50;;;;;;;11.32;75.76;101336.91;4953765;28;20725;-71
2021/05/31 03:58:45;;;;;;;6.70;6.13;;;;;;;11.39;75.10;101343.81;4949539;28;20215;-70
2021/05/31 04:01:12;;;;;;;6.73;6.23;;;;;;;11.41;74.51;101347.28;4953362;28;20361;-70
2021/05/31 04:03:40;;;;;;;9.30;6.20;;;;;;;11.40;74.79;101340.34;4951666;28;20236;-72
2021/05/31 04:06:16;;;;;;;7.30;6.07;;;;;;;11.42;74.79;101342.94;4954506;28;20226;-71
2021/05/31 04:11:36;;;;;;;6.20;5.77;;;;;;;11.51;73.45;101348.94;4955286;28;20222;-70
2021/05/31 04:14:03;;;;;;;6.10;5.63;;;;;;;11.50;73.13;101343.75;4957508;28;20236;-70
2021/05/31 04:16:29;;;;;;;6.10;5.60;;;;;;;11.49;73.16;101345.47;4955578;28;20303;-71
2021/05/31 04:18:57;;;;;;;6.10;5.60;;;;;;;11.50;72.82;101346.38;4955047;28;20227;-71
2021/05/31 04:21:23;;;;;;;5.93;5.30;;;;;;;11.53;72.78;101347.22;4954728;28;20246;-71
2021/05/31 04:23:49;;;;;;;5.90;5.43;;;;;;;11.57;72.70;101350.63;4952382;28;20231;-71
2021/05/31 04:26:15;;;;;;;6.37;5.30;;;;;;;11.58;71.77;101346.31;4950316;28;20395;-70
2021/05/31 04:28:41;;;;;;;6.13;5.53;;;;;;;11.56;71.87;101348.91;4950411;28;20229;-71
2021/05/31 04:31:06;;;;;;;5.90;5.40;;;;;;;11.58;71.79;101349.78;4958778;28;20243;-70
2021/05/31 04:33:32;;;;;;;5.50;5.00;;;;;;;11.63;71.46;101350.59;4956865;28;20627;-71
2021/05/31 04:36:00;;;;;;;5.53;5.03;;;;;;;11.61;71.89;101352.34;4962697;28;20217;-71
2021/05/31 04:38:26;;;;;;;5.43;5.00;;;;;;;11.65;72.04;101355.81;4958194;28;20211;-70
2021/05/31 04:40:52;;;;;;;5.90;5.50;;;;;;;11.65;72.02;101351.44;4956269;28;20887;-71
2021/05/31 04:43:18;;;;;;;5.50;5.10;;;;;;;11.69;71.57;101360.13;4957571;28;20233;-70
2021/05/31 04:45:44;;;;;;;5.13;4.83;;;;;;;11.68;72.10;101356.66;4956460;28;20771;-70
2021/05/31 04:48:10;;;;;;;6.20;5.70;;;;;;;11.73;72.23;101354.00;4955975;28;20235;-70
2021/05/31 04:50:36;;;;;;;6.90;6.30;;;;;;;11.78;72.06;101356.59;4956086;28;20211;-69
2021/05/31 04:53:03;;;;;;;6.43;5.80;;;;;;;11.79;71.38;101356.53;4962441;28;20238;-71
2021/05/31 04:55:29;;;;;;;6.83;5.37;;;;;;;11.85;71.13;101359.13;4960734;28;20207;-71
2021/05/31 04:57:55;;;;;;;5.60;5.10;;;;;;;11.88;70.86;101347.75;4958743;28;20246;-70
2021/05/31 05:00:21;;;;;;;5.67;5.17;;;;;;;11.92;70.30;101349.50;4958401;28;20592;-70
2021/05/31 05:02:47;;;;;;;6.50;5.80;;;;;;;11.89;70.79;101346.91;4952928;28;20723;-70
2021/05/31 05:05:13;;;;;;;5.83;5.33;;;;;;;11.90;70.61;101348.66;4955538;28;20210;-70
2021/05/31 05:07:45;;;;;;;5.43;5.03;;;;;;;11.94;70.42;101352.97;4955518;28;20284;-70
2021/05/31 05:10:14;;;;;;;5.73;5.23;;;;;;;12.01;70.10;101348.53;4955798;28;20208;-70
2021/05/31 05:12:42;;;;;;;6.03;5.53;;;;;;;12.02;69.70;101348.53;4955159;28;20246;-70
2021/05/31 05:15:08;;;;;;;5.63;5.13;;;;;;;12.06;69.69;101342.38;4955213;28;20679;-71
2021/05/31 05:17:34;;;;;;;6.23;5.83;;;;;;;12.08;70.15;101340.59;4956571;28;20262;-70
2021/05/31 05:20:00;;;;;;;6.27;5.60;;;;;;;12.11;70.98;101342.34;4957299;28;20222;-70
2021/05/31 05:22:26;;;;;;;6.30;5.73;;;;;;;12.15;70.43;101341.41;4954928;28;20207;-70
2021/05/31 05:24:52;;;;;;;5.73;5.23;;;;;;;12.23;69.64;101336.97;4955038;28;20889;-69
2021/05/31 05:27:19;;;;;;;5.97;5.37;;;;;;;12.26;69.13;101336.91;4955204;28;20327;-71
2021/05/31 05:29:46;;;;;;;4.50;4.20;;;;;;;12.31;68.20;101339.50;4955620;28;20208;-70
2021/05/31 05:32:12;;;;;;;5.37;4.97;;;;;;;12.33;68.13;101340.34;4956230;28;20446;-69
2021/05/31 05:34:38;;;;;;;4.97;4.57;;;;;;;12.38;67.86;101345.50;4956823;28;20211;-70
2021/05/31 05:37:07;;;;;;;5.37;5.00;;;;;;;12.39;68.09;101331.53;4955815;28;20218;-70
2021/05/31 05:39:50;;;;;;;5.37;4.97;;;;;;;12.42;68.87;101336.72;4955280;28;20217;-71
2021/05/31 05:42:27;;;;;;;5.50;5.00;;;;;;;12.46;68.09;101330.56;4955344;28;20232;-71
2021/05/31 05:45:16;;;;;;;5.90;5.50;;;;;;;12.51;68.73;101345.34;4953821;28;20889;-70
2021/05/31 05:47:42;;;;;;;6.00;5.20;;;;;;;12.64;68.54;101347.81;4956376;28;20656;-70
2021/05/31 05:50:09;;;;;;;5.97;5.20;;;;;;;12.69;68.04;101349.47;4956053;28;20211;-69
2021/05/31 05:52:36;;;;;;;5.27;4.67;;;;;;;12.72;68.35;101348.56;4956478;28;20235;-71
2021/05/31 05:55:02;;;;;;;5.40;4.90;;;;;;;12.75;68.31;101345.91;4955875;28;20211;-70
2021/05/31 05:57:28;;;;;;;5.20;4.80;;;;;;;12.77;68.15;101344.16;4951788;28;20228;-71
2021/05/31 05:59:55;;;;;;;5.60;5.10;;;;;;;12.83;67.92;101344.06;4955391;28;20309;-69
2021/05/31 06:02:21;;;;;;;6.23;5.63;;;;;;;12.91;67.00;101349.19;4954616;28;20679;-72
2021/05/31 06:04:47;;;;;;;5.57;5.07;;;;;;;12.95;66.27;101355.28;4956407;28;20265;-70
2021/05/31 06:07:12;;;;;;;5.00;4.70;;;;;;;13.00;66.73;101353.44;4955821;28;20751;-71
2021/05/31 06:09:38;;;;;;;5.40;4.70;;;;;;;13.02;66.83;101352.53;4953945;28;20212;-71
2021/05/31 06:12:05;;;;;;;5.87;5.23;;;;;;;13.07;67.29;101355.94;4954178;28;20213;-69
2021/05/31 06:14:31;;;;;;;5.47;5.07;;;;;;;13.12;67.42;101353.25;4956837;28;20271;-71
2021/05/31 06:16:58;;;;;;;6.40;5.80;;;;;;;13.19;67.21;101351.41;4953110;28;20307;-70
2021/05/31 06:19:24;;;;;;;5.33;4.90;;;;;;;13.22;65.90;101351.34;4952637;28;20213;-70
2021/05/31 06:21:50;;;;;;;5.17;4.67;;;;;;;13.24;65.97;101358.34;4955366;28;20258;-69
2021/05/31 06:24:15;;;;;;;5.00;4.60;;;;;;;13.30;65.64;101357.41;4951683;28;20282;-70
2021/05/31 06:26:41;;;;;;;5.00;4.50;;;;;;;13.35;65.34;101352.94;4955892;28;20205;-70
2021/05/31 06:29:07;;;;;;;5.13;4.73;;;;;;;13.38;65.61;101357.25;4956074;28;20575;-71
2021/05/31 06:31:33;;;;;;;5.40;4.90;;;;;;;13.44;65.54;101351.94;4953562;28;20212;-71
2021/05/31 06:34:00;;;;;;;4.97;4.50;;;;;;;13.50;64.70;101352.69;4952529;28;20244;-72
2021/05/31 06:36:27;;;;;;;4.20;3.80;;;;;;;13.53;64.89;101343.91;4953075;28;20291;-70
2021/05/31 06:38:52;;;;;;;4.30;3.90;;;;;;;13.56;63.85;101348.22;4956691;28;20214;-72
2021/05/31 06:41:18;;;;;;;4.40;4.10;;;;;;;13.59;63.24;101345.56;4955377;28;20219;-71
2021/05/31 06:43:44;;;;;;;4.57;4.27;;;;;;;13.58;64.07;101347.34;4956450;28;20738;-71
2021/05/31 06:46:10;;;;;;;5.13;4.23;;;;;;;13.62;63.74;101346.38;4953926;28;20294;-72
2021/05/31 06:48:36;;;;;;;5.43;4.63;;;;;;;13.67;64.67;101344.53;4954675;28;20236;-70
2021/05/31 06:51:04;;;;;;;5.27;4.77;;;;;;;13.74;64.51;101352.31;4953874;28;20212;-70
2021/05/31 06:53:30;;;;;;;4.70;4.20;;;;;;;13.76;65.30;101346.16;4954921;28;20222;-71
2021/05/31 06:55:56;;;;;;;5.40;4.90;;;;;;;13.82;64.63;101353.91;4954145;28;20209;-71
2021/05/31 06:58:22;;;;;;;5.43;5.03;;;;;;;13.84;64.95;101341.63;4953166;28;20606;-71
2021/05/31 07:00:48;;;;;;;4.93;4.53;;;;;;;13.90;64.19;101348.53;4953743;28;20293;-72
2021/05/31 07:03:14;;;;;;;4.53;4.23;;;;;;;13.95;64.14;101351.06;4957505;28;20235;-72
2021/05/31 07:05:40;;;;;;;6.23;4.57;;;;;;;14.00;63.58;101343.97;4953795;28;20320;-72
2021/05/31 07:08:07;;;;;;;4.87;4.47;;;;;;;14.01;63.99;101350.94;4953642;28;20227;-72
2021/05/31 07:10:33;;;;;;;4.60;4.20;;;;;;;14.07;63.70;101340.31;4953488;28;20244;-73
2021/05/31 07:13:00;;;;;;;4.70;4.30;;;;;;;14.12;62.76;101345.50;4952389;28;20232;-72
2021/05/31 07:15:27;;;;;;;6.87;4.63;;;;;;;14.20;63.06;101343.59;4953694;28;20675;-73
2021/05/31 07:17:53;;;;;;;4.83;4.00;;;;;;;14.25;62.33;101340.00;4952467;28;20237;-72
2021/05/31 07:20:19;;;;;;;5.43;4.50;;;;;;;14.27;62.28;101338.19;4954112;28;20279;-71
2021/05/31 07:22:46;;;;;;;5.10;4.03;;;;;;;14.32;61.56;101338.09;4952905;28;20271;-72
2021/05/31 07:25:16;;;;;;;5.00;4.60;;;;;;;14.40;61.28;101345.81;4953657;28;20205;-72
2021/05/31 07:27:42;;;;;;;5.03;4.57;;;;;;;14.41;61.32;101335.28;4954208;28;20309;-72
2021/05/31 07:30:11;;;;;;;4.20;3.77;;;;;;;14.50;61.79;101336.84;4956529;28;20212;-72
2021/05/31 07:32:37;;;;;;;4.23;3.93;;;;;;;14.50;60.54;101337.72;4952624;28;20843;-72
2021/05/31 07:35:04;;;;;;;6.30;4.40;;;;;;;14.55;60.38;101335.00;4953554;28;20269;-72
2021/05/31 07:37:30;;;;;;;4.10;3.70;;;;;;;14.56;59.55;101334.13;4953179;28;20210;-72
2021/05/31 07:39:55;;;;;;;4.20;3.73;;;;;;;14.58;59.31;101334.09;4952446;28;20219;-73
2021/05/31 07:42:23;;;;;;;3.90;3.60;;;;;;;14.60;58.65;101338.41;4953500;28;20205;-73
2021/05/31 07:44:48;;;;;;;4.57;3.70;;;;;;;14.66;57.70;101340.06;4955889;28;20216;-71
2021/05/31 07:47:14;;;;;;;3.87;3.23;;;;;;;14.63;57.98;101337.50;4954282;28;20233;-73
2021/05/31 07:49:40;;;;;;;3.70;3.40;;;;;;;14.71;58.29;101335.56;4954022;28;20675;-73
2021/05/31 07:52:19;;;;;;;4.50;3.07;;;;;;;14.81;57.15;101339.72;4956954;28;20208;-74
2021/05/31 07:54:45;;;;;;;3.90;3.50;;;;;;;14.84;56.67;101333.53;4952881;28;20232;-72
2021/05/31 07:57:10;;;;;;;7.00;3.70;;;;;;;14.86;57.58;101337.84;4954972;28;20232;-72
2021/05/31 07:59:38;;;;;;;2.70;2.33;;;;;;;14.95;56.81;101339.41;4953073;28;20213;-71
2021/05/31 08:02:04;;;;;;;4.10;3.20;;;;;;;15.00;56.26;101337.53;4955187;28;20213;-73
2021/05/31 08:04:30;;;;;;;3.83;3.37;;;;;;;15.06;56.28;101334.78;4957566;28;20321;-73
2021/05/31 08:06:59;;;;;;;3.20;3.00;;;;;;;15.13;54.94;101332.00;4956562;28;20232;-72
2021/05/31 08:09:25;;;;;;;3.03;2.73;;;;;;;15.22;55.31;101335.28;4959885;28;20227;-72
2021/05/31 08:11:51;;;;;;;3.93;2.53;;;;;;;15.29;53.65;101336.84;4957903;28;20292;-74
2021/05/31 08:14:17;;;;;;;4.17;3.00;;;;;;;15.34;53.33;101334.13;4957175;28;20233;-74
2021/05/31 08:16:46;;;;;;;4.87;3.00;;;;;;;15.35;53.37;101335.00;4958847;28;20224;-73
2021/05/31 08:19:12;;;;;;;3.43;2.97;;;;;;;15.36;54.46;101329.69;4958934;28;20213;-72
2021/05/31 08:21:38;;;;;;;3.20;2.90;;;;;;;15.38;54.87;101333.16;4957380;28;20230;-71
2021/05/31 08:24:04;;;;;;;3.03;2.83;;;;;;;15.49;54.64;101328.47;4957422;28;20709;-70
2021/05/31 08:26:30;;;;;;;4.03;2.97;;;;;;;15.58;53.40;101334.41;4957528;28;20220;-73
2021/05/31 08:28:56;;;;;;;3.10;2.80;;;;;;;15.59;53.37;101330.88;4960157;28;20237;-72
2021/05/31 08:31:22;;;;;;;2.93;2.63;;;;;;;15.60;53.38;101337.84;4960204;28;20209;-72
2021/05/31 08:33:49;;;;;;;4.50;2.73;;;;;;;15.63;52.54;101328.13;4957508;28;20226;-72
2021/05/31 08:36:16;;;;;;;6.83;2.83;;;;;;;15.64;53.02;101327.22;4956258;28;20250;-73
2021/05/31 08:38:42;;;;;;;4.17;3.13;;;;;;;15.66;52.37;101325.44;4960270;28;20209;-72
2021/05/31 08:41:07;;;;;;;3.60;2.90;;;;;;;15.78;53.40;101328.69;4959863;28;20204;-72
2021/05/31 08:43:33;;;;;;;3.23;2.87;;;;;;;15.81;53.73;101333.84;4957608;28;20339;-70
2021/05/31 08:45:59;;;;;;;4.37;2.53;;;;;;;15.86;52.50;101326.72;4957353;28;20221;-71
2021/05/31 08:48:27;;;;;;;2.70;2.50;;;;;;;15.93;51.64;101327.41;4955255;28;20234;-72
2021/05/31 08:50:55;;;;;;;3.73;2.97;;;;;;;15.99;51.23;101325.44;4958014;28;20218;-71
2021/05/31 08:53:21;;;;;;;4.07;3.43;;;;;;;16.01;51.52;101323.63;4955571;28;20225;-71
2021/05/31 08:55:47;;;;;;;4.80;3.37;;;;;;;16.06;51.13;101318.25;4958796;28;20205;-73
2021/05/31 08:58:14;;;;;;;4.17;3.60;;;;;;;16.08;51.63;101324.34;4958312;28;20206;-73
2021/05/31 09:00:40;;;;;;;4.87;3.37;;;;;;;16.13;50.93;101322.44;4973648;28;20212;-74
2021/05/31 09:03:09;;;;;;;4.07;3.10;;;;;;;16.20;50.59;101313.47;4974348;28;20238;-73
2021/05/31 09:05:37;;;;;;;6.27;3.10;;;;;;;16.18;50.35;101311.78;4976707;28;20402;-73
2021/05/31 09:08:09;;;;;;;3.87;2.77;;;;;;;16.21;50.81;101304.66;4959938;28;20873;-72
2021/05/31 09:10:43;;;;;;;3.37;2.70;;;;;;;16.27;49.20;101311.50;4957676;28;20200;-74
2021/05/31 09:13:09;;;;;;;3.00;2.33;;;;;;;16.35;45.71;101313.94;4955762;28;21279;-72
2021/05/31 09:15:35;;;;;;;3.23;2.10;;;;;;;16.35;44.85;101306.91;4958130;28;20205;-74
2021/05/31 09:18:01;;;;;;;3.33;2.40;;;;;;;16.35;45.26;101309.53;4957919;28;20275;-71
2021/05/31 09:20:27;;;;;;;2.90;2.53;;;;;;;16.32;45.93;101303.50;4959515;28;20218;-74
2021/05/31 09:22:55;;;;;;;3.13;2.73;;;;;;;16.25;46.10;101297.53;4955524;28;20233;-74
2021/05/31 09:25:30;;;;;;;3.20;2.20;;;;;;;16.31;46.69;101299.13;4956800;28;20209;-74
2021/05/31 09:27:58;;;;;;;4.57;2.63;;;;;;;16.32;44.72;101303.50;4956605;28;20273;-73
2021/05/31 09:30:39;;;;;;;2.30;1.77;;;;;;;16.32;44.11;101296.44;4954026;28;20225;-74
2021/05/31 09:33:08;;;;;;;2.60;2.30;;;;;;;16.41;46.20;101303.19;4959348;28;20237;-73
2021/05/31 09:35:34;;;;;;;2.20;1.90;;;;;;;16.50;44.14;101302.94;4956629;28;20252;-74
2021/05/31 09:38:02;;;;;;;2.80;1.97;;;;;;;16.46;42.50;101298.69;4958116;28;20686;-74
2021/05/31 09:40:30;;;;;;;3.07;1.90;;;;;;;16.47;42.78;101296.00;4954776;28;20213;-72
2021/05/31 09:42:58;;;;;;;1.50;1.40;;;;;;;16.43;40.20;101296.13;4955224;28;20233;-72
2021/05/31 09:45:24;;;;;;;2.83;1.30;;;;;;;16.47;39.98;101292.47;4959340;28;20223;-72
2021/05/31 09:47:50;;;;;;;2.30;2.07;;;;;;;16.58;42.58;101287.75;4952588;28;20340;-72
2021/05/31 09:50:24;;;;;;;3.20;1.97;;;;;;;16.64;42.16;101300.75;4955521;28;20222;-72
2021/05/31 09:53:02;;;;;;;2.90;1.80;;;;;;;16.76;40.17;101298.66;4961810;28;20231;-71
2021/05/31 09:55:35;;;;;;;2.03;1.40;;;;;;;16.85;38.21;101295.78;4955448;28;20237;-72
2021/05/31 09:58:06;;;;;;;1.80;1.10;;;;;;;16.88;35.48;101293.88;4955799;28;20209;-73
2021/05/31 10:00:32;;;;;;;2.13;1.53;;;;;;;16.92;33.45;101288.53;4956326;28;20201;-69
2021/05/31 10:03:03;;;;;;;2.83;1.60;;;;;;;17.01;35.43;101298.78;4953745;28;20233;-72
2021/05/31 10:05:36;;;;;;;1.93;1.40;;;;;;;17.06;35.65;101289.78;4955787;28;20221;-73
2021/05/31 10:08:17;;;;;;;2.27;1.27;;;;;;;17.15;37.09;101290.44;4953445;28;20598;-72
2021/05/31 10:10:45;;;;;;;2.70;1.60;;;;;;;17.20;37.77;101286.72;4958316;28;20209;-73
2021/05/31 10:13:11;;;;;;;3.10;1.40;;;;;;;17.30;36.93;101282.00;4958254;28;20240;-72
2021/05/31 10:15:40;;;;;;;2.40;1.40;;;;;;;17.35;36.45;101279.22;4955171;28;20268;-72
2021/05/31 10:18:07;;;;;;;2.40;1.57;;;;;;;17.37;35.87;101285.31;4957552;28;20216;-73
2021/05/31 10:20:37;;;;;;;2.43;1.20;;;;;;;17.39;36.35;101268.50;4954382;28;20206;-72
2021/05/31 10:23:04;;;;;;;3.00;1.47;;;;;;;17.45;36.16;101272.72;4956446;28;20233;-74
2021/05/31 10:25:31;;;;;;;4.73;1.63;;;;;;;17.52;35.93;101270.72;4958659;28;20202;-74
2021/05/31 10:28:05;;;;;;;1.10;0.80;;;;;;;17.57;34.78;101267.00;4957360;28;20229;-74
2021/05/31 10:30:39;;;;;;;1.37;1.20;;;;;;;17.64;34.56;101263.25;4959566;28;20209;-74
2021/05/31 10:33:12;;;;;;;1.70;1.10;;;;;;;17.73;35.27;101261.19;4955665;28;20234;-72
2021/05/31 10:35:37;;;;;;;4.27;1.20;;;;;;;17.80;35.01;101260.91;4955249;28;20206;-72
2021/05/31 10:38:10;;;;;;;1.30;1.20;;;;;;;17.91;35.56;101249.13;4956447;28;20241;-72
2021/05/31 10:40:41;;;;;;;3.50;1.17;;;;;;;18.00;34.84;101251.44;4954346;28;20687;-72
2021/05/31 10:43:10;;;;;;;1.47;1.20;;;;;;;18.05;31.96;101249.47;4953979;28;20231;-72
2021/05/31 10:45:38;;;;;;;1.17;0.90;;;;;;;18.13;30.74;101241.25;4953080;28;20426;-72
2021/05/31 10:48:13;;;;;;;1.03;0.80;;;;;;;18.15;31.92;101244.72;4953647;28;20289;-72
2021/05/31 10:50:41;;;;;;;2.27;1.20;;;;;;;18.23;32.81;101242.63;4954940;28;20213;-72
2021/05/31 10:53:25;;;;;;;1.27;0.93;;;;;;;18.30;35.54;101249.41;4951000;28;20226;-72
2021/05/31 10:55:52;;;;;;;1.33;0.90;;;;;;;18.43;32.98;101255.09;4951825;28;20753;-72
2021/05/31 10:58:22;;;;;;;2.53;1.00;;;;;;;18.49;30.61;101246.91;4953358;28;20581;-73
2021/05/31 11:00:55;;;;;;;2.73;1.10;;;;;;;18.59;30.90;101247.41;4953941;28;20209;-72
2021/05/31 11:03:21;;;;;;;1.10;0.80;;;;;;;18.66;33.82;101244.47;4956847;28;20810;-71
2021/05/31 11:05:47;;;;;;;1.97;0.80;;;;;;;18.79;31.99;101238.69;4955802;28;20210;-72
2021/05/31 11:08:24;;;;;;;1.27;1.10;;;;;;;18.96;33.27;101238.91;4953888;28;20226;-72
2021/05/31 11:10:55;;;;;;;0.90;0.87;;;;;;;19.12;34.06;101240.91;4955542;28;20291;-74
2021/05/31 11:13:22;;;;;;;1.10;1.00;;;;;;;19.25;31.61;101236.84;4953740;28;20230;-73
2021/05/31 11:16:01;;;;;;;1.27;0.80;;;;;;;19.38;30.91;101238.00;4952826;28;20206;-71
2021/05/31 11:18:33;;;;;;;0.97;0.70;;;;;;;19.46;30.17;101237.69;4952482;28;20209;-72
2021/05/31 11:21:00;;;;;;;1.40;0.90;;;;;;;19.59;29.24;101235.38;4954053;28;20218;-72
2021/05/31 11:23:26;;;;;;;1.37;1.10;;;;;;;19.76;32.84;101221.41;4951925;28;20235;-72
2021/05/31 11:25:52;;;;;;;0.80;0.80;;;;;;;19.98;30.59;101227.47;4954030;28;20215;-73
2021/05/31 11:28:24;;;;;;;0.80;0.80;;;;;;;20.22;30.69;101230.78;4953721;28;20639;-73